Time;durP1;ratioP1;P1;durP2;ratioP2;P2;SDS_P1;SDS_P2;PMS_P1;PMS_P2;Temp;Humidity;BMP_temperature;BMP_pressure;BME280_temperature;BME280_humidity;BME280_pressure;Samples;Min_cycle;Max_cycle;Signal;HPM_P1;HPM_P2
2022/08/25 00:01:26;;;;;;;1.33;0.60;;;24.80;60.70;;;;;;4718678;30;20143;-81
2022/08/25 00:03:58;;;;;;;1.70;0.60;;;24.80;60.70;;;;;;4704199;30;20372;-80
2022/08/25 00:06:25;;;;;;;1.00;0.52;;;24.70;60.70;;;;;;4718350;30;20102;-81
2022/08/25 00:08:52;;;;;;;0.82;0.57;;;24.70;60.60;;;;;;4718117;30;20059;-81
2022/08/25 00:11:24;;;;;;;1.88;0.63;;;24.70;60.60;;;;;;4686603;30;20682;-81
2022/08/25 00:13:55;;;;;;;0.85;0.57;;;24.70;60.50;;;;;;4703131;30;20122;-81
2022/08/25 00:16:22;;;;;;;1.40;0.60;;;24.70;60.40;;;;;;4718167;30;20102;-81
2022/08/25 00:18:53;;;;;;;0.43;0.40;;;24.70;60.40;;;;;;4724663;30;20076;-81
2022/08/25 00:21:20;;;;;;;1.23;0.70;;;24.70;60.40;;;;;;4718215;30;20056;-81
2022/08/25 00:23:48;;;;;;;1.10;0.70;;;24.70;60.40;;;;;;4700941;30;20085;-80
2022/08/25 00:26:16;;;;;;;1.42;0.75;;;24.60;60.20;;;;;;4716182;30;20081;-81
2022/08/25 00:28:43;;;;;;;0.98;0.50;;;24.60;60.20;;;;;;4720422;30;20048;-81
2022/08/25 00:31:17;;;;;;;1.48;0.70;;;24.60;60.20;;;;;;4692914;30;20056;-81
2022/08/25 00:33:46;;;;;;;1.02;0.50;;;24.60;60.10;;;;;;4718030;30;20215;-81
2022/08/25 00:36:16;;;;;;;1.20;0.50;;;24.60;60.10;;;;;;4717701;30;20056;-81
2022/08/25 00:38:47;;;;;;;1.20;0.43;;;24.50;60.00;;;;;;4717977;30;20122;-81
2022/08/25 00:41:19;;;;;;;1.13;0.65;;;24.50;60.00;;;;;;4736025;30;20056;-81
2022/08/25 00:43:50;;;;;;;1.05;0.57;;;24.50;59.90;;;;;;4717853;30;20061;-81
2022/08/25 00:46:21;;;;;;;0.90;0.60;;;24.50;59.90;;;;;;4738422;30;20110;-81
2022/08/25 00:48:57;;;;;;;1.15;0.65;;;24.50;59.90;;;;;;4720620;30;20052;-80
2022/08/25 00:51:54;;;;;;;1.20;0.60;;;24.50;59.80;;;;;;4721108;30;20048;-81
2022/08/25 00:54:26;;;;;;;1.17;0.60;;;24.50;60.50;;;;;;4721452;30;20422;-81
2022/08/25 00:56:55;;;;;;;1.00;0.60;;;24.40;59.90;;;;;;4721055;30;20041;-81
2022/08/25 00:59:24;;;;;;;1.35;0.70;;;24.40;59.80;;;;;;4720948;30;20052;-81
2022/08/25 01:01:53;;;;;;;1.35;0.57;;;24.40;59.80;;;;;;4730680;30;20521;-81
2022/08/25 01:04:20;;;;;;;1.10;0.60;;;24.30;59.80;;;;;;4711256;30;20057;-81
2022/08/25 01:06:48;;;;;;;2.03;0.80;;;24.30;59.90;;;;;;4721091;30;20567;-81
2022/08/25 01:09:16;;;;;;;1.10;0.65;;;24.30;59.90;;;;;;4717814;30;20503;-81
2022/08/25 01:11:45;;;;;;;1.25;0.60;;;24.20;59.90;;;;;;4722090;30;20525;-80
2022/08/25 01:14:15;;;;;;;1.85;0.80;;;24.20;59.90;;;;;;4728667;30;20463;-80
2022/08/25 01:16:48;;;;;;;3.10;0.70;;;24.20;59.90;;;;;;4726098;30;20059;-81
2022/08/25 01:19:20;;;;;;;2.08;0.85;;;24.10;59.80;;;;;;4695415;30;20103;-80
2022/08/25 01:21:49;;;;;;;1.58;0.60;;;24.10;59.90;;;;;;4723092;30;20481;-81
2022/08/25 01:24:35;;;;;;;1.88;0.60;;;24.10;59.90;;;;;;4724784;30;20061;-81
2022/08/25 01:27:03;;;;;;;0.95;0.60;;;24.10;59.80;;;;;;4726675;30;20052;-81
2022/08/25 01:29:32;;;;;;;1.05;0.68;;;24.00;59.80;;;;;;4726566;30;20507;-80
2022/08/25 01:32:03;;;;;;;1.30;0.70;;;24.00;59.80;;;;;;4696814;30;20131;-80
2022/08/25 01:34:40;;;;;;;1.52;0.60;;;24.00;59.80;;;;;;4717577;30;20499;-80
2022/08/25 01:37:09;;;;;;;0.85;0.57;;;24.00;59.80;;;;;;4736268;30;20048;-81
2022/08/25 01:39:40;;;;;;;1.13;0.70;;;24.00;59.80;;;;;;4728855;30;20414;-80
2022/08/25 01:42:10;;;;;;;1.77;0.63;;;23.90;59.80;;;;;;4706574;30;20076;-80
2022/08/25 01:44:40;;;;;;;1.35;0.60;;;23.90;59.80;;;;;;4722241;30;20195;-80
2022/08/25 01:47:07;;;;;;;1.70;0.70;;;23.90;59.90;;;;;;4719640;30;20118;-80
2022/08/25 01:49:34;;;;;;;1.58;0.70;;;23.80;59.80;;;;;;4702167;30;20131;-80
2022/08/25 01:52:23;;;;;;;2.92;0.57;;;23.80;59.80;;;;;;4702475;30;20057;-80
2022/08/25 01:54:50;;;;;;;1.50;0.70;;;23.80;59.80;;;;;;4705154;30;20111;-80
2022/08/25 01:57:21;;;;;;;2.28;0.70;;;23.80;59.80;;;;;;4720201;30;20044;-80
2022/08/25 01:59:48;;;;;;;1.20;0.60;;;23.80;59.70;;;;;;4707095;30;20052;-80
2022/08/25 02:02:15;;;;;;;1.23;0.70;;;23.80;59.60;;;;;;4720240;30;20048;-79
2022/08/25 02:04:44;;;;;;;1.30;0.50;;;23.80;59.60;;;;;;4697023;30;20052;-78
2022/08/25 02:07:11;;;;;;;1.08;0.68;;;23.90;59.60;;;;;;4704760;30;20139;-78
2022/08/25 02:09:38;;;;;;;1.80;0.70;;;23.90;59.40;;;;;;4708275;30;20476;-78
2022/08/25 02:12:08;;;;;;;2.47;0.85;;;23.90;59.40;;;;;;4728036;30;20562;-78
2022/08/25 02:14:36;;;;;;;1.88;0.75;;;23.90;59.30;;;;;;4735600;30;20055;-78
2022/08/25 02:17:04;;;;;;;1.30;0.70;;;23.90;59.30;;;;;;4719985;30;20068;-80
2022/08/25 02:19:32;;;;;;;1.45;0.77;;;23.90;59.20;;;;;;4735509;30;20176;-80
2022/08/25 02:21:59;;;;;;;1.38;0.63;;;23.90;59.20;;;;;;4705292;30;20138;-80
2022/08/25 02:24:26;;;;;;;1.20;0.63;;;23.90;59.00;;;;;;4719183;30;20057;-78
2022/08/25 02:26:54;;;;;;;2.70;0.80;;;23.90;59.00;;;;;;4718080;30;20118;-79
2022/08/25 02:29:21;;;;;;;1.55;0.70;;;24.00;59.00;;;;;;4696409;30;20065;-78
2022/08/25 02:31:48;;;;;;;1.00;0.50;;;24.00;58.90;;;;;;4734642;30;20064;-78
2022/08/25 02:34:15;;;;;;;1.42;0.80;;;24.00;58.80;;;;;;4694444;30;20523;-78
2022/08/25 02:36:43;;;;;;;1.10;0.63;;;24.00;58.70;;;;;;4728162;30;20049;-78
2022/08/25 02:39:11;;;;;;;1.20;0.70;;;24.00;58.60;;;;;;4705757;30;20048;-78
2022/08/25 02:41:38;;;;;;;1.75;0.68;;;24.10;58.70;;;;;;4686831;30;20389;-78
2022/08/25 02:44:08;;;;;;;1.30;0.60;;;24.00;58.50;;;;;;4716849;30;20084;-78
2022/08/25 02:46:38;;;;;;;1.50;0.70;;;24.00;58.40;;;;;;4702410;30;20400;-78
2022/08/25 02:49:08;;;;;;;1.00;0.50;;;24.10;58.50;;;;;;4688005;30;20494;-80
2022/08/25 02:51:35;;;;;;;1.73;0.60;;;24.10;58.30;;;;;;4707919;30;20088;-80
2022/08/25 02:54:04;;;;;;;1.00;0.50;;;24.00;58.30;;;;;;4716064;30;20519;-80
2022/08/25 02:56:35;;;;;;;1.08;0.60;;;24.00;58.20;;;;;;4717212;30;20060;-80
2022/08/25 02:59:02;;;;;;;1.00;0.50;;;24.00;58.20;;;;;;4701116;30;20573;-80
2022/08/25 03:01:31;;;;;;;1.85;0.80;;;24.00;58.20;;;;;;4693802;30;20453;-80
2022/08/25 03:03:58;;;;;;;1.33;0.70;;;24.00;58.10;;;;;;4719680;30;20051;-80
2022/08/25 03:06:26;;;;;;;1.00;0.60;;;23.90;58.00;;;;;;4721712;30;20067;-80
2022/08/25 03:08:54;;;;;;;1.80;0.70;;;23.90;58.10;;;;;;4711470;30;20585;-80
2022/08/25 03:11:21;;;;;;;2.00;0.60;;;23.80;58.00;;;;;;4715764;30;20140;-81
2022/08/25 03:13:49;;;;;;;0.88;0.50;;;23.80;58.10;;;;;;4687529;30;20136;-80
2022/08/25 03:16:17;;;;;;;1.67;0.65;;;23.70;58.10;;;;;;4701726;30;20061;-80
2022/08/25 03:18:44;;;;;;;1.83;0.70;;;23.70;58.10;;;;;;4715889;30;20053;-80
2022/08/25 03:21:12;;;;;;;1.38;0.70;;;23.70;58.20;;;;;;4715759;30;20519;-81
2022/08/25 03:23:45;;;;;;;3.08;0.68;;;23.60;58.10;;;;;;4701801;30;20440;-81
2022/08/25 03:28:59;;;;;;;1.55;0.70;;;23.50;58.10;;;;;;4710427;30;20052;-80
2022/08/25 03:31:26;;;;;;;3.53;0.85;;;23.50;58.20;;;;;;4701311;30;20049;-81
2022/08/25 03:33:54;;;;;;;2.45;0.70;;;23.50;58.20;;;;;;4679494;30;20050;-80
2022/08/25 03:36:21;;;;;;;2.22;0.80;;;23.40;58.20;;;;;;4728329;30;20056;-78
2022/08/25 03:38:48;;;;;;;1.60;0.80;;;23.40;58.30;;;;;;4701098;30;20049;-78
2022/08/25 03:41:17;;;;;;;1.88;0.70;;;23.30;58.30;;;;;;4700989;30;20060;-78
2022/08/25 03:43:44;;;;;;;1.25;0.70;;;23.30;58.30;;;;;;4699874;30;20492;-78
2022/08/25 03:46:26;;;;;;;1.73;0.60;;;23.30;58.40;;;;;;4702195;30;20061;-78
2022/08/25 03:48:54;;;;;;;1.50;0.77;;;23.30;58.30;;;;;;4715648;30;20126;-78
2022/08/25 03:51:30;;;;;;;1.80;0.85;;;23.20;58.40;;;;;;4700935;30;20429;-78
2022/08/25 03:53:58;;;;;;;2.92;0.80;;;23.20;58.40;;;;;;4715273;30;20056;-80
2022/08/25 03:56:26;;;;;;;1.17;0.60;;;23.20;58.50;;;;;;4715501;30;20136;-80
2022/08/25 03:58:54;;;;;;;1.63;0.77;;;23.10;58.50;;;;;;4715167;30;20056;-80
2022/08/25 04:01:22;;;;;;;1.52;0.60;;;23.10;58.60;;;;;;4714702;30;20103;-80
2022/08/25 04:03:50;;;;;;;0.98;0.50;;;23.10;58.60;;;;;;4700967;30;20480;-80
2022/08/25 04:06:18;;;;;;;2.08;1.05;;;23.10;58.60;;;;;;4715407;30;20083;-80
2022/08/25 04:08:45;;;;;;;1.10;0.70;;;23.10;58.60;;;;;;4712671;30;20108;-79
2022/08/25 04:11:17;;;;;;;1.77;0.73;;;23.00;58.60;;;;;;4701124;30;20084;-80
2022/08/25 04:13:45;;;;;;;2.00;0.80;;;23.00;58.70;;;;;;4700751;30;20064;-80
2022/08/25 04:16:18;;;;;;;1.08;0.60;;;23.00;58.70;;;;;;4695500;30;20139;-80
2022/08/25 04:18:47;;;;;;;1.70;0.80;;;23.00;58.80;;;;;;4716447;30;20519;-80
2022/08/25 04:21:15;;;;;;;1.45;0.88;;;22.90;58.90;;;;;;4716411;30;20132;-80
2022/08/25 04:23:44;;;;;;;2.03;0.70;;;22.90;58.90;;;;;;4715183;30;20056;-80
2022/08/25 04:26:18;;;;;;;2.15;0.90;;;22.80;59.00;;;;;;4714907;30;20478;-80
2022/08/25 04:28:46;;;;;;;2.08;0.88;;;22.80;59.00;;;;;;4716287;30;20053;-80
2022/08/25 04:31:14;;;;;;;2.55;0.80;;;22.80;59.10;;;;;;4718336;30;20132;-80
2022/08/25 04:33:42;;;;;;;1.60;1.00;;;22.70;59.20;;;;;;4722804;30;20064;-80
2022/08/25 04:36:12;;;;;;;1.33;0.70;;;22.70;59.20;;;;;;4707386;30;20152;-80
2022/08/25 04:38:41;;;;;;;1.95;0.80;;;22.70;59.30;;;;;;4706515;30;20137;-80
2022/08/25 04:41:11;;;;;;;2.47;0.90;;;22.60;59.30;;;;;;4706892;30;20049;-80
2022/08/25 04:43:40;;;;;;;1.98;0.93;;;22.60;59.40;;;;;;4718415;30;20129;-80
2022/08/25 04:46:22;;;;;;;1.85;1.00;;;22.50;59.50;;;;;;4722590;30;20053;-80
2022/08/25 04:48:51;;;;;;;1.33;0.95;;;22.50;59.50;;;;;;4708626;30;20057;-80
2022/08/25 04:51:24;;;;;;;1.70;0.95;;;22.40;59.60;;;;;;4709368;30;20100;-80
2022/08/25 04:53:52;;;;;;;2.67;0.93;;;22.40;59.60;;;;;;4732841;30;20107;-80
2022/08/25 04:56:23;;;;;;;2.03;1.20;;;22.40;59.70;;;;;;4714278;30;20500;-80
2022/08/25 04:58:51;;;;;;;1.65;0.85;;;22.40;59.70;;;;;;4732122;30;20515;-80
2022/08/25 05:01:21;;;;;;;2.42;0.80;;;22.30;59.70;;;;;;4726360;30;20076;-80
2022/08/25 05:03:58;;;;;;;1.83;0.77;;;22.30;59.70;;;;;;4703650;30;20053;-80
2022/08/25 05:06:26;;;;;;;1.73;0.70;;;22.40;59.80;;;;;;4710062;30;20474;-80
2022/08/25 05:08:54;;;;;;;2.38;0.93;;;22.30;59.80;;;;;;4730427;30;20136;-80
2022/08/25 05:11:22;;;;;;;2.28;0.95;;;22.30;59.80;;;;;;4700928;30;20069;-80
2022/08/25 05:13:53;;;;;;;1.67;0.90;;;22.30;59.80;;;;;;4703307;30;20220;-80
2022/08/25 05:16:23;;;;;;;2.10;0.98;;;22.30;59.80;;;;;;4717855;30;20825;-79
2022/08/25 05:18:50;;;;;;;1.27;0.73;;;22.30;60.50;;;;;;4704998;30;20049;-80
2022/08/25 05:21:22;;;;;;;3.08;0.93;;;22.30;59.90;;;;;;4703372;30;20103;-80
2022/08/25 05:23:49;;;;;;;;;;;22.30;59.80;;;;;;4723578;30;20496;-80
2022/08/25 05:26:19;;;;;;;1.67;0.93;;;22.30;59.90;;;;;;4717961;30;19984;-80
2022/08/25 05:28:49;;;;;;;2.33;1.00;;;22.30;59.90;;;;;;4718904;30;20117;-79
2022/08/25 05:31:17;;;;;;;2.58;0.90;;;22.30;59.80;;;;;;4703016;30;20107;-79
2022/08/25 05:33:44;;;;;;;1.45;0.88;;;22.30;59.80;;;;;;4703166;30;20045;-79
2022/08/25 05:36:13;;;;;;;2.65;0.70;;;22.30;59.70;;;;;;4705645;30;20341;-79
2022/08/25 05:38:40;;;;;;;2.22;1.00;;;22.40;59.80;;;;;;4716940;30;20049;-79
2022/08/25 05:41:11;;;;;;;1.80;1.02;;;22.40;59.70;;;;;;4705833;30;20053;-79
2022/08/25 05:43:40;;;;;;;1.73;0.70;;;22.40;59.70;;;;;;4717346;30;20515;-79
2022/08/25 05:46:08;;;;;;;2.22;0.90;;;22.40;59.60;;;;;;4702661;30;20145;-79
2022/08/25 05:48:36;;;;;;;1.60;0.80;;;22.40;59.60;;;;;;4703078;30;20138;-80
2022/08/25 05:51:06;;;;;;;1.40;0.70;;;22.50;59.60;;;;;;4716634;30;20098;-79
2022/08/25 05:53:34;;;;;;;1.77;0.93;;;22.50;59.50;;;;;;4729705;30;20055;-79
2022/08/25 05:56:02;;;;;;;1.40;0.70;;;22.60;59.50;;;;;;4716457;30;20115;-79
2022/08/25 05:58:30;;;;;;;1.85;0.88;;;22.60;59.40;;;;;;4716370;30;20049;-79
2022/08/25 06:02:39;;;;;;;2.00;1.00;;;22.60;59.40;;;;;;4717139;30;20045;-80
2022/08/25 06:03:52;;;;;;;0.90;0.60;;;22.70;59.40;;;;;;4717202;30;20056;-82
2022/08/25 06:06:23;;;;;;;1.88;0.98;;;22.70;59.30;;;;;;4716457;30;20292;-79
2022/08/25 06:08:50;;;;;;;2.53;0.90;;;22.80;59.20;;;;;;4701627;30;20057;-79
2022/08/25 06:11:20;;;;;;;3.13;1.20;;;22.80;59.20;;;;;;4686991;30;20115;-80
2022/08/25 06:13:48;;;;;;;1.77;0.80;;;22.80;59.00;;;;;;4697794;30;20072;-78
2022/08/25 06:16:15;;;;;;;1.95;0.85;;;22.90;58.90;;;;;;4716543;30;20238;-77
2022/08/25 06:18:45;;;;;;;1.42;0.80;;;23.00;58.80;;;;;;4702506;30;20109;-78
2022/08/25 06:21:14;;;;;;;1.30;0.70;;;23.00;58.70;;;;;;4685323;30;20088;-77
2022/08/25 06:23:41;;;;;;;1.13;0.75;;;23.10;58.60;;;;;;4736641;30;20049;-78
2022/08/25 06:26:12;;;;;;;2.50;1.00;;;23.20;58.50;;;;;;4701746;30;20052;-78
2022/08/25 06:28:51;;;;;;;1.95;0.70;;;23.30;58.40;;;;;;4703039;30;20148;-77
2022/08/25 06:31:19;;;;;;;1.60;0.80;;;23.30;58.30;;;;;;4716305;30;20053;-78
2022/08/25 06:33:46;;;;;;;1.50;0.80;;;23.40;58.20;;;;;;4722804;30;20045;-78
2022/08/25 06:36:14;;;;;;;2.05;0.90;;;23.50;58.10;;;;;;4684357;30;20523;-79
2022/08/25 06:38:41;;;;;;;1.42;0.80;;;23.60;58.00;;;;;;4687686;30;20053;-81
2022/08/25 06:41:09;;;;;;;2.03;0.98;;;23.70;57.90;;;;;;4719813;30;20049;-81
2022/08/25 06:43:40;;;;;;;1.23;0.60;;;23.80;57.80;;;;;;4702148;30;20413;-81
2022/08/25 06:46:18;;;;;;;1.15;0.70;;;23.80;57.60;;;;;;4702999;30;20049;-81
2022/08/25 06:48:46;;;;;;;2.10;0.90;;;23.90;57.50;;;;;;4702489;30;20088;-81
2022/08/25 06:51:15;;;;;;;2.33;1.00;;;24.00;57.40;;;;;;4708103;30;20089;-81
2022/08/25 06:53:47;;;;;;;1.83;0.85;;;24.00;57.30;;;;;;4722852;30;20045;-81
2022/08/25 06:56:16;;;;;;;1.52;0.73;;;24.10;57.30;;;;;;4707994;30;20065;-81
2022/08/25 06:58:44;;;;;;;1.63;0.80;;;24.20;57.10;;;;;;4716020;30;20487;-82
2022/08/25 07:01:19;;;;;;;2.05;0.90;;;24.30;57.00;;;;;;4701906;30;20411;-82
2022/08/25 07:03:47;;;;;;;1.60;0.90;;;24.40;56.90;;;;;;4716069;30;20049;-82
2022/08/25 07:06:18;;;;;;;1.58;1.10;;;24.40;56.80;;;;;;4720137;30;20049;-79
2022/08/25 07:08:46;;;;;;;1.35;0.70;;;24.50;56.70;;;;;;4715846;30;20057;-79
2022/08/25 07:11:15;;;;;;;0.95;0.55;;;24.60;56.60;;;;;;4711726;30;20096;-79
2022/08/25 07:13:44;;;;;;;1.95;1.05;;;24.60;56.50;;;;;;4717326;30;20049;-80
2022/08/25 07:16:11;;;;;;;1.45;0.85;;;24.80;56.40;;;;;;4717834;30;20495;-80
2022/08/25 07:18:38;;;;;;;3.40;0.90;;;24.80;56.20;;;;;;4725372;30;20056;-81
2022/08/25 07:21:06;;;;;;;1.92;0.77;;;24.90;56.00;;;;;;4711756;30;20534;-82
2022/08/25 07:23:35;;;;;;;1.65;0.90;;;25.00;55.90;;;;;;4686632;30;20061;-82
2022/08/25 07:26:35;;;;;;;1.30;0.70;;;25.00;55.70;;;;;;4708706;30;20126;-82
2022/08/25 07:29:24;;;;;;;3.17;0.80;;;25.20;55.60;;;;;;4674369;30;20064;-82
2022/08/25 07:32:02;;;;;;;1.70;0.82;;;25.30;55.60;;;;;;4715737;30;20060;-81
2022/08/25 07:37:20;;;;;;;0.90;0.65;;;25.50;55.30;;;;;;4712971;30;20065;-80
2022/08/25 07:40:31;;;;;;;1.73;1.08;;;25.60;55.20;;;;;;4703593;30;20171;-82
2022/08/25 07:43:03;;;;;;;2.42;0.85;;;25.60;55.00;;;;;;4710041;30;20080;-83
2022/08/25 07:45:36;;;;;;;1.45;0.80;;;25.80;54.90;;;;;;4728273;30;20068;-79
2022/08/25 07:48:13;;;;;;;1.08;0.70;;;25.80;54.70;;;;;;4715000;30;20053;-82
2022/08/25 07:50:45;;;;;;;1.65;0.80;;;25.90;54.60;;;;;;4701625;30;20060;-85
2022/08/25 07:53:14;;;;;;;1.73;0.70;;;26.00;54.50;;;;;;4686874;30;20439;-83
2022/08/25 07:55:41;;;;;;;1.77;0.80;;;26.10;54.40;;;;;;4715608;30;20053;-83
2022/08/25 07:58:11;;;;;;;2.42;0.93;;;26.10;54.30;;;;;;4713650;30;20071;-83
2022/08/25 08:00:40;;;;;;;2.05;1.00;;;26.20;54.20;;;;;;4718012;30;20156;-80
2022/08/25 08:03:09;;;;;;;1.73;0.80;;;26.30;54.10;;;;;;4701004;30;20076;-80
2022/08/25 08:05:56;;;;;;;1.73;0.93;;;26.40;54.00;;;;;;4702612;30;20573;-80
2022/08/25 08:08:23;;;;;;;1.60;0.80;;;26.40;53.90;;;;;;4690216;30;20049;-83
2022/08/25 08:10:50;;;;;;;1.08;0.60;;;26.50;53.80;;;;;;4715057;30;20061;-83
2022/08/25 08:13:32;;;;;;;1.40;0.70;;;26.50;53.70;;;;;;4699105;30;20459;-85
2022/08/25 08:16:11;;;;;;;1.92;0.70;;;26.60;53.60;;;;;;4718056;30;20691;-82
2022/08/25 08:18:40;;;;;;;1.48;0.70;;;26.70;53.50;;;;;;4700863;30;20049;-82
2022/08/25 08:21:29;;;;;;;2.15;0.82;;;26.70;53.40;;;;;;4716110;30;20053;-82
2022/08/25 08:23:58;;;;;;;0.98;0.60;;;26.90;54.10;;;;;;4714854;30;20072;-82
2022/08/25 08:26:27;;;;;;;1.88;0.98;;;26.90;53.40;;;;;;4722744;30;20052;-82
2022/08/25 08:29:18;;;;;;;2.08;0.70;;;27.00;53.30;;;;;;4712082;30;20053;-90
2022/08/25 08:31:48;;;;;;;1.55;0.57;;;27.00;53.20;;;;;;4713667;30;20107;-85
2022/08/25 08:34:15;;;;;;;1.45;0.90;;;27.00;53.00;;;;;;4705753;30;20427;-87
2022/08/25 08:36:51;;;;;;;1.13;0.70;;;27.10;53.10;;;;;;4729408;30;20044;-83
2022/08/25 08:39:19;;;;;;;1.55;0.80;;;27.10;52.90;;;;;;4703537;30;20135;-84
2022/08/25 08:42:16;;;;;;;1.40;0.80;;;27.20;52.80;;;;;;4703818;30;20051;-85
2022/08/25 08:45:11;;;;;;;2.03;0.80;;;27.30;52.60;;;;;;4729086;30;20542;-82
2022/08/25 08:47:57;;;;;;;2.25;0.90;;;27.40;52.50;;;;;;4722163;30;20526;-82
2022/08/25 08:50:32;;;;;;;1.95;0.75;;;27.50;52.40;;;;;;4739117;30;20181;-83
2022/08/25 08:53:08;;;;;;;0.98;0.63;;;27.60;52.30;;;;;;4717380;30;20392;-83
2022/08/25 08:55:44;;;;;;;2.38;0.75;;;27.70;52.20;;;;;;4728897;30;20108;-83
2022/08/25 08:58:32;;;;;;;1.45;0.80;;;27.90;52.00;;;;;;4717836;30;20114;-82
2022/08/25 09:01:00;;;;;;;2.30;0.70;;;27.90;51.80;;;;;;4703487;30;20056;-84
2022/08/25 09:03:35;;;;;;;1.58;0.70;;;28.00;51.80;;;;;;4717751;30;20055;-84
2022/08/25 09:06:27;;;;;;;2.28;0.70;;;28.10;51.60;;;;;;4707566;30;20053;-83
2022/08/25 09:08:57;;;;;;;1.48;0.75;;;28.30;51.50;;;;;;4717656;30;20110;-85
2022/08/25 09:12:03;;;;;;;1.10;0.70;;;28.30;51.30;;;;;;4710990;30;20434;-81
2022/08/25 09:14:52;;;;;;;1.20;0.60;;;28.40;51.10;;;;;;4695571;30;20060;-81
2022/08/25 09:17:46;;;;;;;2.08;0.85;;;28.40;51.00;;;;;;4725115;30;20079;-82
2022/08/25 09:20:44;;;;;;;1.63;0.70;;;28.60;50.90;;;;;;4713586;30;20148;-86
2022/08/25 09:23:19;;;;;;;1.67;0.75;;;28.60;50.60;;;;;;4721921;30;20113;-83
2022/08/25 09:25:58;;;;;;;2.15;0.70;;;28.70;50.60;;;;;;4732322;30;20049;-82
2022/08/25 09:28:32;;;;;;;1.15;0.65;;;28.80;50.50;;;;;;4722015;30;20048;-83
2022/08/25 09:31:11;;;;;;;2.17;0.85;;;28.90;50.40;;;;;;4706083;30;20052;-82
2022/08/25 09:33:38;;;;;;;1.23;0.52;;;29.00;50.30;;;;;;4706108;30;20826;-85
2022/08/25 09:36:07;;;;;;;1.13;0.70;;;29.10;50.20;;;;;;4706096;30;20057;-83
2022/08/25 09:38:35;;;;;;;1.30;0.63;;;29.20;50.10;;;;;;4714003;30;20044;-83
2022/08/25 09:41:05;;;;;;;1.20;0.57;;;29.20;50.00;;;;;;4742103;30;20056;-82
2022/08/25 09:43:37;;;;;;;1.10;0.65;;;29.30;49.80;;;;;;4713192;30;21009;-86
2022/08/25 09:46:04;;;;;;;;;;;29.40;49.70;;;;;;4719121;30;20060;-83
2022/08/25 09:48:46;;;;;;;3.78;0.85;;;29.40;49.70;;;;;;4716971;30;20395;-83
2022/08/25 09:51:28;;;;;;;1.30;0.68;;;29.40;49.40;;;;;;4707033;30;20412;-83
2022/08/25 09:54:15;;;;;;;1.60;0.70;;;29.50;49.90;;;;;;4723999;30;20048;-86
2022/08/25 09:56:49;;;;;;;1.45;0.70;;;29.70;49.20;;;;;;4731969;30;20418;-83
2022/08/25 09:59:23;;;;;;;1.83;0.70;;;29.80;49.00;;;;;;4720149;30;20559;-81
2022/08/25 10:02:33;;;;;;;1.17;0.50;;;29.90;48.80;;;;;;4720698;30;20076;-82
2022/08/25 10:05:22;;;;;;;1.65;0.68;;;29.90;48.60;;;;;;4730575;30;20048;-80
2022/08/25 10:07:56;;;;;;;1.55;0.60;;;30.00;48.40;;;;;;4720245;30;20127;-82
2022/08/25 10:10:56;;;;;;;1.73;0.65;;;30.00;48.20;;;;;;4719840;30;20056;-83
2022/08/25 10:13:45;;;;;;;1.85;0.60;;;30.10;47.90;;;;;;4705994;30;20084;-83
2022/08/25 10:16:22;;;;;;;2.08;0.70;;;30.20;47.80;;;;;;4718857;30;20565;-85
2022/08/25 10:19:11;;;;;;;1.75;0.80;;;30.30;47.40;;;;;;4713498;30;20415;-87
2022/08/25 10:21:40;;;;;;;1.50;0.70;;;30.50;47.00;;;;;;4717273;30;20100;-88
2022/08/25 10:24:11;;;;;;;2.30;0.90;;;30.60;46.80;;;;;;4719967;30;20387;-87
2022/08/25 10:27:08;;;;;;;1.60;0.80;;;30.90;46.50;;;;;;4719077;30;20139;-84
2022/08/25 10:29:47;;;;;;;1.23;0.70;;;31.20;46.00;;;;;;4718031;30;20052;-84
2022/08/25 10:32:50;;;;;;;1.13;0.73;;;31.60;45.50;;;;;;4719991;30;20073;-85
2022/08/25 10:35:29;;;;;;;1.42;0.80;;;31.90;45.00;;;;;;4709346;30;20139;-86
2022/08/25 10:38:24;;;;;;;1.30;0.70;;;32.20;44.60;;;;;;4721218;30;20057;-86
2022/08/25 10:41:21;;;;;;;2.65;0.70;;;32.50;44.20;;;;;;4713541;30;20067;-86
2022/08/25 10:47:37;;;;;;;2.58;0.60;;;32.90;43.40;;;;;;4733498;30;20063;-89
2022/08/25 10:50:12;;;;;;;2.20;0.73;;;32.90;43.00;;;;;;4704650;30;20096;-83
2022/08/25 10:52:59;;;;;;;1.52;0.70;;;33.10;43.00;;;;;;4722036;30;20130;-85
2022/08/25 10:55:56;;;;;;;1.40;0.80;;;33.20;42.50;;;;;;4724203;30;20052;-83
2022/08/25 10:58:42;;;;;;;1.40;0.70;;;33.10;42.50;;;;;;4718515;30;20152;-82
2022/08/25 11:01:37;;;;;;;1.40;0.70;;;32.90;42.80;;;;;;4718835;30;20114;-86
2022/08/25 11:04:24;;;;;;;0.80;0.50;;;32.70;43.00;;;;;;4727652;30;20049;-87
2022/08/25 11:07:23;;;;;;;1.10;0.65;;;32.50;43.10;;;;;;4705051;30;20148;-85
2022/08/25 11:09:58;;;;;;;1.98;0.75;;;32.80;42.80;;;;;;4710229;30;20055;-87
2022/08/25 11:12:38;;;;;;;0.77;0.40;;;32.50;42.90;;;;;;4716504;30;20060;-89
2022/08/25 11:15:26;;;;;;;1.17;0.60;;;32.30;43.10;;;;;;4718955;30;20499;-84
2022/08/25 11:18:05;;;;;;;1.42;0.55;;;32.10;43.10;;;;;;4736927;30;20055;-85
2022/08/25 11:20:59;;;;;;;1.88;0.50;;;32.00;43.30;;;;;;4719689;30;20060;-86
2022/08/25 11:23:35;;;;;;;1.80;0.60;;;32.00;43.00;;;;;;4718668;30;20139;-83
2022/08/25 11:26:13;;;;;;;1.25;0.50;;;32.00;43.10;;;;;;4719353;30;20068;-86
2022/08/25 11:28:50;;;;;;;1.10;0.50;;;32.30;42.80;;;;;;4718548;30;20063;-84
2022/08/25 11:31:22;;;;;;;0.90;0.50;;;33.40;41.90;;;;;;4725642;30;20540;-82
2022/08/25 11:33:51;;;;;;;1.10;0.55;;;34.40;40.70;;;;;;4716627;30;20059;-87
2022/08/25 11:36:30;;;;;;;1.45;0.40;;;34.90;40.00;;;;;;4720549;30;20114;-87
2022/08/25 11:39:00;;;;;;;1.13;0.60;;;35.30;39.40;;;;;;4704406;30;20048;-86
2022/08/25 11:41:49;;;;;;;1.08;0.43;;;35.70;39.20;;;;;;4703988;30;20079;-86
2022/08/25 11:44:51;;;;;;;1.10;0.50;;;36.00;39.40;;;;;;4718894;30;20060;-84
2022/08/25 11:47:54;;;;;;;0.93;0.35;;;36.20;38.50;;;;;;4716710;30;20053;-86
2022/08/25 11:50:32;;;;;;;0.77;0.47;;;36.40;38.30;;;;;;4728723;30;20109;-87
2022/08/25 11:53:10;;;;;;;0.82;0.50;;;36.60;38.10;;;;;;4719427;30;20059;-85
2022/08/25 11:55:37;;;;;;;1.30;0.40;;;36.70;37.90;;;;;;4719929;30;20126;-87
2022/08/25 11:58:27;;;;;;;0.88;0.43;;;36.70;37.80;;;;;;4704265;30;20044;-86
2022/08/25 12:00:58;;;;;;;;;;;36.80;37.50;;;;;;4726516;30;20053;-88
2022/08/25 12:03:31;;;;;;;1.45;0.50;;;36.80;37.80;;;;;;4704268;30;20009;-86
2022/08/25 12:06:22;;;;;;;1.42;0.55;;;37.00;37.60;;;;;;4701305;30;20053;-88
2022/08/25 12:08:49;;;;;;;1.67;0.40;;;37.20;37.40;;;;;;4713807;30;20107;-89
2022/08/25 12:11:50;;;;;;;0.57;0.38;;;37.10;37.30;;;;;;4712726;30;20519;-86
2022/08/25 12:14:23;;;;;;;0.70;0.40;;;36.40;37.40;;;;;;4732629;30;20049;-86
2022/08/25 12:16:54;;;;;;;2.65;0.50;;;35.40;38.00;;;;;;4711051;30;20057;-84
2022/08/25 12:19:33;;;;;;;1.20;0.40;;;34.60;38.30;;;;;;4717322;30;20462;-82
2022/08/25 12:22:00;;;;;;;0.98;0.55;;;34.00;38.70;;;;;;4718063;30;20053;-84
2022/08/25 12:24:41;;;;;;;1.02;0.40;;;33.60;39.10;;;;;;4727949;30;20045;-85
2022/08/25 12:27:29;;;;;;;1.00;0.45;;;33.40;39.20;;;;;;4704870;30;20067;-87
2022/08/25 12:30:10;;;;;;;0.98;0.45;;;33.20;39.30;;;;;;4726639;30;20119;-83
2022/08/25 12:33:26;;;;;;;0.45;0.35;;;33.10;39.40;;;;;;4718604;30;20151;-85
2022/08/25 12:35:59;;;;;;;0.70;0.40;;;32.90;39.30;;;;;;4702972;30;20526;-83
2022/08/25 12:38:46;;;;;;;1.02;0.40;;;32.80;39.50;;;;;;4713245;30;20064;-90
2022/08/25 12:41:29;;;;;;;0.70;0.40;;;32.70;39.60;;;;;;4724571;30;20048;-85
2022/08/25 12:44:40;;;;;;;1.33;0.40;;;32.70;39.40;;;;;;4720144;30;20079;-81
2022/08/25 12:47:23;;;;;;;1.20;0.53;;;32.70;39.30;;;;;;4695611;30;20143;-87
2022/08/25 12:49:50;;;;;;;0.85;0.50;;;32.70;39.30;;;;;;4721048;30;20060;-92
2022/08/25 12:52:24;;;;;;;1.13;0.40;;;32.70;39.10;;;;;;4711214;30;20049;-92
2022/08/25 12:54:58;;;;;;;0.93;0.50;;;32.80;39.10;;;;;;4721755;30;20151;-83
2022/08/25 12:57:49;;;;;;;0.88;0.50;;;32.70;39.00;;;;;;4741407;30;20049;-85
2022/08/25 13:00:22;;;;;;;1.00;0.40;;;32.70;39.60;;;;;;4721476;30;20045;-86
2022/08/25 13:03:00;;;;;;;1.55;0.50;;;32.70;39.00;;;;;;4718767;30;20045;-91
2022/08/25 13:05:54;;;;;;;1.60;0.50;;;32.70;39.00;;;;;;4719325;30;20061;-85
2022/08/25 13:08:36;;;;;;;0.50;0.30;;;32.70;38.90;;;;;;4713194;30;20076;-84
2022/08/25 13:11:12;;;;;;;0.98;0.50;;;32.70;39.00;;;;;;4720999;30;20057;-82
2022/08/25 13:13:59;;;;;;;1.00;0.40;;;32.70;39.00;;;;;;4706732;30;20421;-81
2022/08/25 13:16:28;;;;;;;0.80;0.40;;;32.70;39.10;;;;;;4726686;30;20059;-81
2022/08/25 13:19:00;;;;;;;0.65;0.32;;;32.60;39.00;;;;;;4727764;30;20055;-94
2022/08/25 13:21:35;;;;;;;1.02;0.50;;;32.50;39.10;;;;;;4721547;30;20068;-85
2022/08/25 13:24:13;;;;;;;1.10;0.50;;;32.50;39.00;;;;;;4721254;30;20045;-84
2022/08/25 13:26:45;;;;;;;1.02;0.47;;;32.50;39.00;;;;;;4742007;30;20063;-84
2022/08/25 13:29:19;;;;;;;0.38;0.20;;;32.50;38.90;;;;;;4704078;30;20070;-86
2022/08/25 13:32:03;;;;;;;0.80;0.40;;;32.50;38.80;;;;;;4720669;30;20503;-86
2022/08/25 13:34:39;;;;;;;1.10;0.55;;;32.50;38.80;;;;;;4721476;30;20052;-84